Pronóstico
Mapa Interactivo
Aviación
Investigación
Hidrometeorología
Agrometeorología
Estaciones Automáticas
Transparencia
OMM WMO
Portada
Institución
Noticias
Imágenes
Tsunami
Historial
Boletines y Alertas
Contactos
Buscar Contenidos
Informe del Tiempo

Aviso
HARVEY SE DEBILITA Y DEGENERA A DEPRESION TROPICAL


                                                                              SANTO DOMINGO 19 DE AGOSTO DEL 2017

 

FTDR31 MDSD 192200Z 

TAF  

 

TAF MDPP 192200Z 2000/2024 12010KT 9999 FEW018 PROB30 2000/2006 6000 -TSRA  FEW015CB BKN016 BKN070 BECMG 2001/2003 00000KT=

 

TAF MDST 192200Z 2000/2024 12016KT 9999 SCT026 PROB30 2002/2008 7000 -TSRA FEW018CB BKN018=

 

TAF MDPC 192200Z 2000/2024 08012KT 9999 FEW018CB ST020 PROB040 2001/2004 8000 -TSRA FEW016CB BKN017 BKN070=

 

TAF MDBH 192200Z 2000/2024 13010KT 9999 FEW018CB SCT020 SCT090 BKN300 PROB40 2004/2008 8000 -TSRA FEW016CB SCT018 BKN080 BECMG 2004/2006 00000KT =

 

TAF MDJB 192200Z 2000/2024 36010KT 9999 SCT020 PROB30 2002/2008 7000 -TSRA FEW014CB BKN016 SCT070=  

 

TAF MDSD 192200Z 2000/2024 02008KT 9999 FEW016CB BKN018 PROB40 TEMPO 2000/2006 6000 -TSRA FEW014CB BKN016 BKN070=

 

TAF MDLR 192200Z 2000/2024 00000KT 9999 FEW018CB SCT018 TEMPO 2000/2006 7000 -TSRA FEW014CB BKN016 BKN070 BECMG 2013/2015 07012KT=

 

TAF MDCY 192200Z 2000/2024 06010KT 9999 SCT020 PROB40 2001/2006  7000 -RA FEW 016CB BKN018=

 

MDPP AEROPUERTO INTERNACIONAL LA UNION PUERTO PLATA

MDST AEROPUERTO INTERNACIONAL DE SANTIAGO

MDPC AEROPUERTO INTERNACIONAL PUNTA CANA

MDBH AEROPUERTO INTERNACIONAL DE BARAHONA

MDJB AEROPUERTO INTERNACIONAL JOAQUIN BALAGUER

MDSD AEROPUERTO INTERNACIONAL DE LAS AMERICAS

MDLR AEROPUERTO INTERNACIONAL LA ROMANA

MDCY AEROPUERTO INTERNACIONAL DE CATEY

 

ROBIN RODRIGUEZ

MDPP // J.URBAEZ

MDST // S.POLANCO

MDPC // J.FELIZ

MDBH // J.GOMEZ